Latest Weather Observations for Mildura

IDN60801

Issued at 10:52 am EST Tuesday 19 June 2018 (issued every 10 minutes, with the page automatically refreshed every 10 minutes)

About weather observations | Map of weather stations | Latest weather observations for NSW | Other Formats
Station Details ID: 076031 Name: MILDURA AIRPORT Lat: -34.24 Lon: 142.09 Height: 50.0 m
Data from the previous 72 hours. | See also: Recent months at Mildura
Date/Time
EST
Temp
°C
App
Temp
°C
Dew
Point
°C
Rel
Hum
%
Delta-T
°C
Wind Press
QNH
hPa
Press
MSL
hPa
Rain since
9am
mm
Dir  Spd
km/h
Gust
km/h
Spd
kts
Gust
kts
19/10:30am 8.5 6.9 4.7 77 1.7 ENE 2 7 1 4 1029.5 1029.6 0.0
19/10:00am 7.6 6.3 4.2 79 1.5 CALM 0 0 0 0 1029.6 1029.7 0.0
19/09:30am 5.1 3.8 3.9 92 0.5 CALM 0 0 0 0 1029.7 1029.8 0.0
19/09:00am 2.0 -0.8 1.9 99 0.0 W 6 7 3 4 1029.6 1029.7 0.0
19/08:30am 0.7 -1.2 0.6 99 0.0 CALM 0 0 0 0 1029.0 1029.1 0.0
19/08:00am -0.2 -2.6 -0.3 99 0.0 SW 2 6 1 3 1028.8 1028.9 0.0
19/07:30am -0.2 -3.6 -0.3 99 0.0 W 7 9 4 5 1029.1 1029.2 0.0
19/07:00am -0.2 -3.4 -0.3 99 0.0 W 6 9 3 5 1028.3 1028.4 0.0
19/06:30am 0.0 -3.7 -0.1 99 0.0 WNW 9 11 5 6 1028.1 1028.2 0.0
19/06:00am -0.6 -4.0 -0.7 99 0.0 WNW 7 9 4 5 1028.0 1028.1 0.0
19/05:30am 0.0 -2.4 -0.1 99 0.0 SE 2 6 1 3 1027.7 1027.8 0.0
19/05:00am 0.6 -2.6 0.5 99 0.0 SE 7 11 4 6 1027.5 1027.6 0.0
19/04:30am 0.2 -3.1 0.1 99 0.0 SSE 7 9 4 5 1027.9 1028.0 0.0
19/04:00am 0.2 -3.1 -0.1 98 0.1 SSE 7 7 4 4 1028.1 1028.2 0.0
19/03:30am 0.7 -1.2 0.4 98 0.1 CALM 0 6 0 3 1028.8 1028.9 0.0
19/03:00am 0.7 -2.4 0.1 96 0.2 SSW 6 7 3 4 1028.4 1028.5 0.0
19/02:30am 1.5 -1.5 0.9 96 0.2 SW 6 7 3 4 1028.1 1028.2 0.0
19/02:00am 2.5 -0.9 1.8 95 0.3 WSW 9 11 5 6 1028.5 1028.6 0.0
19/01:30am 3.0 -0.4 2.1 94 0.4 SW 9 11 5 6 1028.8 1028.9 0.0
19/01:00am 3.4 0.1 2.4 93 0.4 SW 9 13 5 7 1029.0 1029.1 0.0
19/12:30am 3.3 0.3 2.3 93 0.4 SSW 7 9 4 5 1028.4 1028.5 0.0
19/12:00am 3.9 0.6 2.4 90 0.6 S 9 11 5 6 1027.8 1027.9 0.0
 
Date/Time
EST
Temp
°C
App
Temp
°C
Dew
Point
°C
Rel
Hum
%
Delta-T
°C
Wind Press
QNH
hPa
Press
MSL
hPa
Rain since
9am
mm
Dir  Spd
km/h
Gust
km/h
Spd
kts
Gust
kts
18/11:30pm 4.5 1.6 2.5 87 0.8 S 7 9 4 5 1027.9 1028.0 0.0
18/11:00pm 5.0 1.7 2.7 85 0.9 S 9 11 5 6 1028.3 1028.4 0.0
18/10:30pm 5.5 1.9 2.7 82 1.1 SSW 11 15 6 8 1028.5 1028.6 0.0
18/10:00pm 5.6 2.3 2.3 79 1.3 SSW 9 11 5 6 1028.6 1028.7 0.0
18/09:30pm 5.8 2.5 2.3 78 1.4 SW 9 11 5 6 1028.6 1028.7 0.0
18/09:00pm 6.0 3.0 2.3 77 1.5 SW 7 9 4 5 1028.6 1028.7 0.0
18/08:30pm 7.0 3.7 2.5 73 1.9 SW 9 11 5 6 1028.5 1028.6 0.0
18/08:00pm 7.4 4.4 2.3 70 2.1 SW 7 11 4 6 1028.5 1028.6 0.0
18/07:30pm 8.0 5.1 2.5 68 2.3 SW 7 11 4 6 1028.3 1028.4 0.0
18/07:00pm 8.3 5.0 2.5 67 2.4 SW 9 11 5 6 1028.1 1028.2 0.0
18/06:30pm 9.0 5.8 2.8 65 2.6 SW 9 11 5 6 1028.1 1028.2 0.0
18/06:00pm 9.8 6.9 2.6 61 3.1 WSW 7 11 4 6 1028.0 1028.1 0.0
18/05:30pm 11.0 7.7 2.6 56 3.6 WSW 9 11 5 6 1027.9 1028.0 0.0
18/05:00pm 12.5 8.9 2.7 51 4.3 SW 11 17 6 9 1027.6 1027.7 0.0
18/04:30pm 13.1 9.4 2.6 49 4.6 SSW 11 19 6 10 1027.3 1027.4 0.0
18/04:00pm 13.3 9.7 3.1 50 4.5 SSW 11 19 6 10 1027.3 1027.4 0.0
18/03:30pm 13.4 9.5 3.5 51 4.5 S 13 19 7 10 1027.4 1027.5 0.0
18/03:00pm 13.2 9.2 2.7 49 4.6 SW 13 20 7 11 1027.8 1027.9 0.0
18/02:30pm 12.9 9.4 3.6 53 4.2 SSW 11 20 6 11 1027.9 1028.0 0.0
18/02:00pm 12.8 9.0 3.7 54 4.1 SSE 13 22 7 12 1028.1 1028.2 0.0
18/01:30pm 12.7 9.0 4.2 56 3.9 S 13 19 7 10 1028.4 1028.5 0.0
18/01:00pm 12.6 8.5 4.6 58 3.6 S 15 24 8 13 1028.7 1028.8 0.0
18/12:30pm 12.0 7.9 4.5 60 3.4 S 15 24 8 13 1028.8 1028.9 0.0
18/12:00pm 11.3 7.2 4.1 61 3.2 SSW 15 24 8 13 1028.9 1029.0 0.0
18/11:30am 10.5 6.4 4.6 67 2.7 SSW 15 22 8 12 1029.2 1029.3 0.0
18/11:00am 9.6 5.9 4.4 70 2.3 SSW 13 20 7 11 1029.5 1029.6 0.0
18/10:30am 8.7 5.0 4.5 75 1.9 S 13 20 7 11 1029.5 1029.6 0.0
18/10:00am 7.4 3.3 4.5 82 1.3 SSW 15 22 8 12 1029.4 1029.5 0.0
18/09:30am 6.4 2.3 4.4 87 0.9 SSW 15 20 8 11 1029.2 1029.3 0.0
18/09:00am 5.3 1.6 4.3 93 0.4 SSW 13 22 7 12 1029.0 1029.1 0.0
18/08:30am 4.3 0.5 3.9 97 0.2 SSW 13 19 7 10 1028.6 1028.7 0.0
18/08:00am 3.6 0.1 3.5 99 0.0 SW 11 15 6 8 1028.4 1028.5 0.0
18/07:30am 3.4 -0.2 3.1 98 0.1 SW 11 15 6 8 1028.1 1028.2 0.0
18/07:00am 3.6 0.1 3.3 98 0.1 SW 11 15 6 8 1027.9 1028.0 0.0
18/06:30am 3.8 0.3 3.4 97 0.2 SW 11 15 6 8 1027.8 1027.9 0.0
18/06:00am 3.9 0.4 3.3 96 0.2 SW 11 17 6 9 1027.5 1027.6 0.0
18/05:30am 3.9 0.4 3.3 96 0.2 SW 11 17 6 9 1027.2 1027.3 0.0
18/05:00am 4.0 0.9 3.4 96 0.2 SW 9 13 5 7 1026.9 1027.0 0.0
18/04:30am 4.5 1.0 3.6 94 0.4 SW 11 15 6 8 1027.0 1027.1 0.0
18/04:00am 5.1 1.7 3.9 92 0.5 SW 11 15 6 8 1026.7 1026.8 0.0
18/03:30am 5.4 1.6 4.1 91 0.6 SW 13 22 7 12 1026.7 1026.8 0.0
18/03:00am 5.2 1.5 4.2 93 0.4 SW 13 17 7 9 1026.6 1026.7 0.0
18/02:30am 5.5 1.8 4.2 91 0.6 SW 13 17 7 9 1026.8 1026.9 0.0
18/02:00am 5.8 2.1 4.3 90 0.6 SW 13 19 7 10 1026.5 1026.6 0.0
18/01:30am 6.2 2.5 4.4 88 0.8 SW 13 20 7 11 1026.5 1026.6 0.0
18/01:00am 6.2 2.5 4.5 89 0.7 SW 13 19 7 10 1026.6 1026.7 0.0
18/12:30am 6.3 3.0 4.6 89 0.7 SW 11 17 6 9 1026.6 1026.7 0.0
18/12:00am 6.7 3.4 4.7 87 0.9 SW 11 17 6 9 1026.7 1026.8 0.0
 
Date/Time
EST
Temp
°C
App
Temp
°C
Dew
Point
°C
Rel
Hum
%
Delta-T
°C
Wind Press
QNH
hPa
Press
MSL
hPa
Rain since
9am
mm
Dir  Spd
km/h
Gust
km/h
Spd
kts
Gust
kts
17/11:30pm 6.9 3.3 4.9 87 0.9 SW 13 20 7 11 1026.7 1026.8 0.0
17/11:00pm 7.1 3.5 5.1 87 0.9 SW 13 20 7 11 1026.7 1026.8 0.0
17/10:30pm 6.9 3.7 4.9 87 0.9 SW 11 17 6 9 1026.6 1026.7 0.0
17/10:00pm 7.4 3.8 4.9 84 1.1 SW 13 22 7 12 1026.6 1026.7 0.0
17/09:30pm 7.8 3.8 4.9 82 1.3 SW 15 20 8 11 1026.5 1026.6 0.0
17/09:00pm 8.2 3.8 4.8 79 1.5 SW 17 24 9 13 1026.1 1026.2 0.0
17/08:30pm 8.5 4.1 4.5 76 1.8 SW 17 24 9 13 1026.0 1026.1 0.0
17/08:00pm 8.8 4.7 4.6 75 1.8 WSW 15 22 8 12 1025.8 1025.9 0.0
17/07:30pm 9.5 5.8 4.7 72 2.1 WSW 13 20 7 11 1025.3 1025.4 0.0
17/07:00pm 9.7 6.5 4.9 72 2.1 WSW 11 17 6 9 1025.0 1025.1 0.0
17/06:30pm 10.1 6.8 4.7 69 2.4 WSW 11 19 6 10 1024.5 1024.6 0.0
17/06:00pm 10.9 7.6 4.4 64 2.9 WSW 11 17 6 9 1024.2 1024.3 0.0
17/05:30pm 11.7 7.2 4.0 59 3.5 SW 17 24 9 13 1023.9 1023.9 0.0
17/05:00pm 12.7 8.1 3.9 55 4.0 SW 17 28 9 15 1023.7 1023.7 0.0
17/04:30pm 13.4 8.3 4.0 53 4.3 SW 20 33 11 18 1023.5 1023.5 0.0
17/04:00pm 12.6 7.3 4.8 59 3.6 SW 22 35 12 19 1023.5 1023.5 0.0
17/03:30pm 13.0 7.9 3.9 54 4.1 SW 20 33 11 18 1023.2 1023.2 0.0
17/03:00pm 13.3 8.1 3.7 52 4.3 SSW 20 35 11 19 1022.9 1022.9 0.0
17/02:30pm 13.5 7.7 4.4 54 4.2 SW 24 37 13 20 1022.7 1022.7 0.0
17/02:00pm 13.2 7.7 4.1 54 4.1 SW 22 33 12 18 1022.8 1022.8 0.0
17/01:30pm 12.9 7.1 4.6 57 3.8 SW 24 37 13 20 1022.9 1022.9 0.0
17/01:00pm 13.0 6.9 4.7 57 3.8 SW 26 41 14 22 1023.1 1023.1 0.0
17/12:30pm 12.7 6.6 4.7 58 3.7 SW 26 41 14 22 1023.3 1023.3 0.0
17/12:00pm 12.1 7.1 6.6 69 2.6 SW 22 37 12 20 1023.8 1023.8 0.0
17/11:30am 11.5 6.5 6.4 71 2.4 WSW 22 37 12 20 1024.1 1024.2 0.0
17/11:00am 10.7 5.7 6.3 74 2.0 SW 22 35 12 19 1024.2 1024.3 0.0
17/10:30am 9.7 4.7 6.4 80 1.5 WSW 22 32 12 17 1024.5 1024.6 0.0
17/10:00am 8.9 4.2 6.0 82 1.3 WSW 20 32 11 17 1024.1 1024.2 0.0
17/09:30am 7.9 3.8 6.0 88 0.9 W 17 32 9 17 1023.6 1023.6 0.0
17/09:00am 6.5 2.3 5.6 94 0.4 W 17 28 9 15 1023.4 1023.4 1.6
17/08:30am 5.4 1.8 5.0 97 0.2 W 13 20 7 11 1023.2 1023.2 1.6
17/08:00am 4.9 0.8 4.6 98 0.1 W 15 22 8 12 1022.8 1022.8 1.6
17/07:30am 4.6 0.5 4.3 98 0.1 W 15 19 8 10 1022.5 1022.5 1.6
17/07:00am 4.5 0.4 4.2 98 0.1 W 15 24 8 13 1022.2 1022.2 1.6
17/06:30am 4.4 0.6 4.1 98 0.1 W 13 20 7 11 1021.8 1021.8 1.6
17/06:00am 4.3 0.5 3.9 97 0.2 W 13 19 7 10 1021.5 1021.5 1.6
17/05:30am 4.3 0.5 3.7 96 0.2 W 13 19 7 10 1021.3 1021.3 1.6
17/05:00am 4.4 0.6 3.7 95 0.3 W 13 22 7 12 1021.3 1021.3 1.6
17/04:30am 4.4 0.5 3.4 93 0.4 W 13 20 7 11 1021.2 1021.2 1.6
17/04:00am 4.7 0.4 3.4 91 0.5 WSW 15 24 8 13 1021.1 1021.1 1.6
17/03:30am 4.8 0.1 3.3 90 0.6 WSW 17 24 9 13 1021.2 1021.2 1.6
17/03:00am 5.0 0.3 3.2 88 0.7 WSW 17 26 9 14 1021.3 1021.3 1.6
17/02:30am 4.7 0.0 3.2 90 0.6 W 17 26 9 14 1021.3 1021.3 1.6
17/02:00am 5.0 -0.1 3.3 89 0.7 WSW 19 30 10 16 1021.2 1021.2 1.6
17/01:30am 4.9 0.7 3.7 92 0.5 W 15 22 8 12 1021.2 1021.2 1.6
17/01:00am 4.9 0.7 4.0 94 0.4 W 15 24 8 13 1021.2 1021.2 1.6
17/12:30am 5.0 0.8 4.0 93 0.4 W 15 22 8 12 1021.2 1021.2 1.6
17/12:00am 5.3 1.1 3.8 90 0.6 W 15 24 8 13 1021.1 1021.1 1.6
 
Date/Time
EST
Temp
°C
App
Temp
°C
Dew
Point
°C
Rel
Hum
%
Delta-T
°C
Wind Press
QNH
hPa
Press
MSL
hPa
Rain since
9am
mm
Dir  Spd
km/h
Gust
km/h
Spd
kts
Gust
kts
16/11:30pm 5.9 1.3 3.9 87 0.8 W 17 24 9 13 1020.8 1020.8 1.6
16/11:00pm 6.0 1.1 4.0 87 0.8 W 19 28 10 15 1020.7 1020.7 1.6
16/10:30pm 6.3 1.8 4.3 87 0.9 WSW 17 28 9 15 1020.6 1020.6 1.6
16/10:00pm 6.7 2.3 4.5 86 1.0 WSW 17 28 9 15 1020.3 1020.3 1.6
16/09:30pm 7.3 2.9 5.0 85 1.0 W 17 26 9 14 1020.1 1020.1 1.6
16/09:00pm 7.3 3.4 5.4 88 0.8 W 15 26 8 14 1019.9 1019.9 1.4
16/08:30pm 7.5 4.3 5.1 85 1.1 WSW 11 19 6 10 1018.9 1018.9 1.4
16/08:00pm 7.6 3.2 4.9 83 1.2 WSW 17 26 9 14 1019.5 1019.5 1.4
16/07:30pm 8.0 3.4 5.6 85 1.1 WSW 19 33 10 18 1019.3 1019.3 1.4
16/07:00pm 8.0 3.9 6.1 88 0.9 WSW 17 26 9 14 1019.3 1019.3 1.4
16/06:43pm 8.5 4.3 5.8 83 1.2 W 17 26 9 14 1018.9 1018.9 1.2
16/06:30pm 8.7 4.6 6.2 84 1.1 W 17 28 9 15 1018.6 1018.6 1.2
16/06:25pm 9.0 5.0 6.8 86 1.0 W 17 26 9 14 1018.9 1018.9 1.0
16/06:00pm 10.0 5.4 5.8 75 1.9 W 19 28 10 15 1018.4 1018.4 0.0
16/05:30pm 10.2 5.9 5.4 72 2.2 WNW 17 26 9 14 1018.2 1018.2 0.0
16/05:00pm 10.9 6.0 5.2 68 2.6 W 20 30 11 16 1018.2 1018.2 0.0
16/04:30pm 11.1 6.9 5.6 69 2.5 W 17 26 9 14 1018.2 1018.2 0.0
16/04:00pm 10.8 6.5 5.1 68 2.6 WSW 17 28 9 15 1018.1 1018.1 0.0
16/03:30pm 9.2 4.7 6.1 81 1.4 SW 19 32 10 17 1018.2 1018.2 0.0
16/03:13pm 9.4 2.3 5.6 77 1.7 W 32 59 17 32 1018.2 1018.2 0.0
16/03:10pm 12.1 5.5 4.3 59 3.5 W 28 50 15 27 1018.0 1018.0 0.0
16/03:00pm 13.0 6.7 3.9 54 4.1 W 26 39 14 21 1017.7 1017.7 0.0
16/02:30pm 13.2 8.1 3.3 51 4.4 W 19 35 10 19 1017.8 1017.8 0.0
16/02:00pm 12.7 6.7 3.4 53 4.1 W 24 41 13 22 1018.1 1018.1 0.0
16/01:30pm 12.5 7.0 4.2 57 3.8 W 22 39 12 21 1018.5 1018.5 0.0
16/01:00pm 12.4 6.4 3.6 55 3.9 W 24 33 13 18 1018.7 1018.7 0.0
16/12:30pm 11.4 5.8 3.7 59 3.4 WSW 22 33 12 18 1019.3 1019.3 0.0
16/12:00pm 11.5 6.2 5.2 65 2.9 WSW 22 37 12 20 1019.7 1019.7 0.0
16/11:30am 11.3 5.7 5.4 67 2.7 W 24 39 13 21 1019.9 1019.9 0.0
16/11:00am 11.4 6.8 6.5 72 2.3 WSW 20 35 11 19 1019.9 1019.9 0.0

Other Formats:

Comma delimited format used in spreadsheet applications
http://www.bom.gov.au/fwo/IDN60801/IDN60801.94693.axf

JavaScript Object Notation format (JSON) in row-major order
http://www.bom.gov.au/fwo/IDN60801/IDN60801.94693.json